You are not logged in, Click here to log in
ICAO: TNCM Country: 加勒比海聖馬丁島荷屬部分
Latitude: 18.0419 Longitude: -63.1131
Total Arrivals: 23 Total Departures: 17
Latest Arrival: AA1376 (KMIA-TNCM)Arthur. Kung Latest Departure: A224860 (TNCM-KMIA)Arthur. Kung
Scenery:
METAR : TNCM 210600Z 06010KT 040V110 9999 FEW019 28/24 Q1016

朱麗安娜公主國際機場SXM